Terminal Aerodrome Forecast
Issued by NWS Raleigh/Durham, NC

Home | Current Version | Previous Version | Text Only | Print | Product List | Glossary On
Versions: 1 2 3 4 5 6 7 8 9 10 11 12 13 14 15 16 17 18 19 20 21 22 23 24 25 26
000
FTUS42 KRAH 211213 AAB
TAFGSO
TAF AMD
KGSO 211213Z 2112/2212 21012KT P6SM BKN007 OVC024
     FM211400 20008G18KT P6SM BKN003
     FM211800 21009G18KT P6SM BKN010
     FM212100 21007KT P6SM BKN040
     FM220400 VRB03KT P6SM BKN008=

USA.gov is the U.S. government's official web portal to all federal, state and local government web resources and services.